Time;durP1;ratioP1;P1;durP2;ratioP2;P2;SDS_P1;SDS_P2;PMS_P1;PMS_P2;Temp;Humidity;BMP_temperature;BMP_pressure;BME280_temperature;BME280_humidity;BME280_pressure;Samples;Min_cycle;Max_cycle;Signal;HPM_P1;HPM_P2
2022/04/16 00:01:19;;;;;;;3.95;1.33;;;;;;;7.38;70.45;101939.72;5032582;28;19939;-68
2022/04/16 00:04:22;;;;;;;3.03;1.73;;;;;;;7.34;70.88;101935.44;5019052;28;20067;-68
2022/04/16 00:07:25;;;;;;;;;;;;;;;7.28;70.76;101940.78;5031628;28;20118;-68
2022/04/16 00:10:29;;;;;;;5.93;1.73;;;;;;;7.11;71.08;101936.66;5032223;28;20322;-68
2022/04/16 00:13:32;;;;;;;;;;;;;;;7.09;70.98;101938.44;5032031;28;20188;-68
2022/04/16 00:16:36;;;;;;;3.25;1.95;;;;;;;7.05;70.67;101934.19;5032252;28;19923;-68
2022/04/16 00:19:40;;;;;;;;;;;;;;;7.01;71.19;101939.44;5032485;28;20052;-67
2022/04/16 00:22:43;;;;;;;2.83;1.80;;;;;;;6.93;71.42;101953.41;5031665;28;20344;-68
2022/04/16 00:25:47;;;;;;;;;;;;;;;6.85;71.84;101954.41;5032333;28;20040;-68
2022/04/16 00:28:50;;;;;;;;;;;;;;;6.78;72.32;101956.22;5032601;28;19920;-68
2022/04/16 00:31:53;;;;;;;3.10;1.65;;;;;;;6.79;72.22;101952.72;5032109;28;20276;-68
2022/04/16 00:34:57;;;;;;;;;;;;;;;6.83;72.30;101948.34;5032454;28;20125;-68
2022/04/16 00:38:00;;;;;;;4.10;2.10;;;;;;;6.87;71.83;101952.66;5031798;28;20296;-68
2022/04/16 00:41:04;;;;;;;;;;;;;;;7.01;70.95;101955.91;5032267;28;20044;-68
2022/04/16 00:44:07;;;;;;;4.25;1.90;;;;;;;7.04;71.74;101948.06;5019887;28;19920;-68
2022/04/16 00:47:12;;;;;;;3.08;1.70;;;;;;;6.92;71.79;101956.03;5031592;28;20064;-68
2022/04/16 00:50:16;;;;;;;3.00;1.75;;;;;;;6.86;71.55;101950.91;5022986;28;20044;-68
2022/04/16 00:53:19;;;;;;;5.07;1.50;;;;;;;6.75;71.99;101949.31;5035239;28;20088;-68
2022/04/16 00:56:22;;;;;;;3.78;1.75;;;;;;;6.70;72.64;101951.16;5035640;28;20543;-68
2022/04/16 00:59:26;;;;;;;;;;;;;;;6.53;72.80;101948.75;5036019;28;20071;-68
2022/04/16 01:02:29;;;;;;;3.00;1.80;;;;;;;6.56;72.51;101947.84;5035495;28;20335;-68
2022/04/16 01:05:32;;;;;;;3.78;1.75;;;;;;;6.59;72.53;101952.16;5035155;28;20495;-67
2022/04/16 01:08:36;;;;;;;5.47;1.55;;;;;;;6.51;73.22;101950.53;5035003;28;20456;-67
2022/04/16 01:11:41;;;;;;;4.13;1.80;;;;;;;6.37;73.21;101955.00;5035479;28;20048;-68
2022/04/16 01:14:45;;;;;;;7.32;1.50;;;;;;;6.35;73.07;101953.31;5035237;28;20408;-68
2022/04/16 01:17:49;;;;;;;2.55;1.63;;;;;;;6.25;73.52;101962.94;5035293;28;20148;-68
2022/04/16 01:20:52;;;;;;;7.10;1.73;;;;;;;6.31;72.99;101960.28;5034916;28;20103;-68
2022/04/16 01:23:56;;;;;;;2.80;1.40;;;;;;;6.36;72.95;101966.28;5035012;28;20040;-68
2022/04/16 01:26:59;;;;;;;2.75;1.25;;;;;;;6.45;73.02;101960.13;5035103;28;20107;-68
2022/04/16 01:30:04;;;;;;;2.40;1.60;;;;;;;6.43;72.76;101962.72;5035027;28;20044;-68
2022/04/16 01:33:07;;;;;;;8.13;1.77;;;;;;;6.43;72.67;101960.13;5034859;28;20045;-68
2022/04/16 01:36:12;;;;;;;5.05;1.55;;;;;;;6.23;72.84;101970.75;5034729;28;20558;-68
2022/04/16 01:39:15;;;;;;;2.75;1.67;;;;;;;6.21;73.18;101971.66;5035072;28;20048;-68
2022/04/16 01:42:21;;;;;;;3.65;1.70;;;;;;;6.28;73.28;101963.75;5035101;28;20055;-68
2022/04/16 01:45:24;;;;;;;3.15;1.83;;;;;;;6.26;73.46;101970.72;5034652;28;20043;-68
2022/04/16 01:48:28;;;;;;;;;;;;;;;6.32;73.66;101966.31;5034958;28;20044;-68
2022/04/16 01:51:32;;;;;;;2.80;1.20;;;;;;;6.31;73.65;101964.63;5034538;28;20299;-68
2022/04/16 01:54:36;;;;;;;3.38;1.60;;;;;;;6.29;73.95;101960.31;5034430;28;20103;-68
2022/04/16 01:57:39;;;;;;;4.18;1.50;;;;;;;6.27;73.90;101962.06;5034809;28;20060;-68
2022/04/16 02:00:43;;;;;;;3.90;1.85;;;;;;;6.18;74.46;101956.97;5021530;28;20163;-68
2022/04/16 02:03:46;;;;;;;4.18;1.70;;;;;;;6.28;73.79;101958.56;5034395;28;20520;-68
2022/04/16 02:06:50;;;;;;;2.47;1.50;;;;;;;6.14;74.41;101957.03;5034314;28;20039;-68
2022/04/16 02:09:53;;;;;;;3.38;1.95;;;;;;;6.03;74.76;101958.00;5034146;28;20099;-68
2022/04/16 02:12:56;;;;;;;;;;;;;;;5.97;74.51;101962.41;5034715;28;20404;-68
2022/04/16 02:16:00;;;;;;;4.13;2.13;;;;;;;5.95;74.93;101970.19;5034068;28;20008;-68
2022/04/16 02:19:03;;;;;;;4.00;1.92;;;;;;;6.00;75.27;101967.56;5034153;28;20095;-68
2022/04/16 02:22:06;;;;;;;3.05;1.58;;;;;;;6.15;74.40;101971.72;5034104;28;20052;-68
2022/04/16 02:25:10;;;;;;;;;;;;;;;6.25;74.29;101971.63;5034626;28;20424;-68
2022/04/16 02:28:13;;;;;;;3.63;1.90;;;;;;;6.53;73.30;101963.47;5033854;28;20172;-68
2022/04/16 02:31:17;;;;;;;3.38;1.70;;;;;;;6.41;73.56;101980.06;5033689;28;20044;-68
2022/04/16 02:34:20;;;;;;;4.57;2.13;;;;;;;6.29;73.88;101978.50;5032749;28;20049;-68
2022/04/16 02:37:24;;;;;;;6.63;1.90;;;;;;;6.20;74.60;101981.19;5033768;28;20299;-68
2022/04/16 02:40:27;;;;;;;;;;;;;;;6.41;74.09;101980.06;5034580;28;20180;-68
2022/04/16 02:43:30;;;;;;;4.97;1.95;;;;;;;6.64;73.19;101982.41;5032967;28;20004;-68
2022/04/16 02:49:56;;;;;;;2.75;1.70;;;;;;;6.44;73.70;101993.03;5033677;28;20056;-68
2022/04/16 02:52:59;;;;;;;3.08;1.80;;;;;;;6.20;74.46;101981.19;5033724;28;20060;-68
2022/04/16 02:56:03;;;;;;;2.78;1.67;;;;;;;6.14;74.67;101986.44;5033350;28;20091;-68
2022/04/16 02:59:06;;;;;;;2.78;1.60;;;;;;;6.19;74.79;101984.66;5033298;28;20041;-68
2022/04/16 03:02:11;;;;;;;;;;;;;;;6.39;74.12;101991.38;5033452;28;20508;-68
2022/04/16 03:05:14;;;;;;;3.85;1.92;;;;;;;6.19;74.33;101984.66;5033231;28;20387;-68
2022/04/16 03:08:18;;;;;;;3.38;1.55;;;;;;;6.14;74.89;101986.44;5033324;28;20432;-68
2022/04/16 03:11:21;;;;;;;5.55;1.92;;;;;;;5.99;75.59;101992.66;5032994;28;20056;-68
2022/04/16 03:17:46;;;;;;;2.67;1.50;;;;;;;6.36;74.49;101989.66;5032915;28;20040;-68
2022/04/16 03:20:49;;;;;;;3.13;1.67;;;;;;;6.35;74.40;101994.88;5033046;28;20558;-68
2022/04/16 03:23:52;;;;;;;3.83;1.70;;;;;;;6.30;74.77;102000.13;5032811;28;20044;-68
2022/04/16 03:26:56;;;;;;;3.05;1.60;;;;;;;6.26;74.92;101995.84;5032922;28;20040;-68
2022/04/16 03:29:59;;;;;;;6.80;2.20;;;;;;;6.18;75.25;101995.91;5032677;28;20137;-68
2022/04/16 03:33:02;;;;;;;;;;;;;;;6.17;75.23;101994.22;5033064;28;20563;-67
2022/04/16 03:36:07;;;;;;;2.92;2.03;;;;;;;6.11;75.71;101996.00;5032933;28;19924;-68
2022/04/16 03:39:11;;;;;;;2.75;1.70;;;;;;;6.01;75.55;102003.03;5032641;28;20103;-68
2022/04/16 03:42:14;;;;;;;;;;;;;;;6.17;74.69;101999.41;5033214;28;20099;-68
2022/04/16 03:45:23;;;;;;;2.40;1.48;;;;;;;6.01;75.92;101997.84;5032325;28;19920;-68
2022/04/16 03:48:26;;;;;;;3.30;1.83;;;;;;;6.01;75.70;101996.09;5032662;28;20044;-68
2022/04/16 03:51:30;;;;;;;2.88;1.80;;;;;;;6.11;74.96;101989.06;5032509;28;20478;-68
2022/04/16 04:01:18;;;;;;;4.32;1.55;;;;;;;5.74;75.98;102007.56;5028518;28;20056;-68
2022/04/16 04:04:22;;;;;;;3.88;2.00;;;;;;;5.69;76.36;102009.34;5029663;28;20060;-67
2022/04/16 04:07:26;;;;;;;3.28;1.67;;;;;;;5.61;77.05;102008.53;4981946;28;20057;-68
2022/04/16 04:10:30;;;;;;;3.10;1.80;;;;;;;5.68;76.91;102005.03;4989221;28;20413;-68
2022/04/16 04:13:34;;;;;;;3.05;1.92;;;;;;;5.77;76.14;102010.13;4988160;28;20052;-68
2022/04/16 04:16:37;;;;;;;4.78;2.30;;;;;;;5.70;76.60;102016.25;4996745;28;20124;-68
2022/04/16 04:19:44;;;;;;;4.18;2.33;;;;;;;5.72;76.52;102014.50;5008489;28;20501;-68
2022/04/16 04:22:49;;;;;;;3.10;1.92;;;;;;;5.61;77.00;102016.31;5009149;28;20064;-68
2022/04/16 04:25:53;;;;;;;6.93;1.85;;;;;;;5.70;76.50;102023.16;5012754;28;20069;-68
2022/04/16 04:28:57;;;;;;;3.72;1.70;;;;;;;5.94;75.80;102022.16;5012309;28;20053;-68
2022/04/16 04:32:03;;;;;;;3.78;1.73;;;;;;;6.04;75.55;102031.56;5012341;28;20162;-68
2022/04/16 04:35:08;;;;;;;3.63;2.40;;;;;;;6.01;75.51;102035.03;5000353;28;20587;-68
2022/04/16 04:38:11;;;;;;;4.63;2.20;;;;;;;5.88;76.24;102045.53;5012841;28;20108;-68
2022/04/16 04:41:15;;;;;;;3.63;2.00;;;;;;;5.83;76.27;102043.81;5012732;28;20414;-68
2022/04/16 04:44:20;;;;;;;3.13;1.90;;;;;;;5.81;76.57;102044.72;5012042;28;20096;-68
2022/04/16 04:47:23;;;;;;;;;;;;;;;5.69;76.80;102050.00;5012892;28;20056;-68
2022/04/16 04:50:27;;;;;;;;;;;;;;;5.90;76.66;102043.75;5011993;28;19924;-68
2022/04/16 04:53:31;;;;;;;3.08;1.75;;;;;;;6.13;75.77;102047.06;5012204;28;19964;-68
2022/04/16 04:56:35;;;;;;;;;;;;;;;6.07;75.59;102046.25;5011296;28;20052;-67
2022/04/16 04:59:39;;;;;;;3.85;1.73;;;;;;;6.08;76.06;102047.97;5012135;28;19920;-67
2022/04/16 05:02:46;;;;;;;4.00;2.05;;;;;;;6.01;76.39;102047.16;5011581;28;20044;-67
2022/04/16 05:05:49;;;;;;;3.33;1.83;;;;;;;6.01;76.30;102060.16;5011392;28;20040;-67
2022/04/16 05:08:53;;;;;;;6.20;1.98;;;;;;;6.03;76.46;102055.78;5007979;28;20108;-67
2022/04/16 05:11:57;;;;;;;4.10;1.75;;;;;;;6.14;76.16;102048.78;4304352;28;10000690;-68
2022/04/16 05:15:00;;;;;;;3.15;2.05;;;;;;;6.43;75.36;102047.63;4992517;28;20050;-68
2022/04/16 05:18:04;;;;;;;3.63;2.05;;;;;;;6.42;74.97;102048.50;4992381;28;20120;-68
2022/04/16 05:21:07;;;;;;;;;;;;;;;6.26;75.70;102051.25;5004050;28;20099;-68
2022/04/16 05:24:11;;;;;;;3.42;1.98;;;;;;;6.22;75.95;102057.38;5010877;28;19975;-68
2022/04/16 05:27:15;;;;;;;4.65;2.47;;;;;;;6.33;75.72;102065.03;5010764;28;20052;-68
2022/04/16 05:30:38;;;;;;;5.30;1.80;;;;;;;6.33;75.88;102069.38;5011998;28;20084;-68
2022/04/16 05:37:04;;;;;;;4.55;1.70;;;;;;;6.75;73.90;102079.31;5009612;28;20776;-68
2022/04/16 05:40:09;;;;;;;2.78;1.83;;;;;;;6.94;73.46;102074.75;5009490;28;20057;-67
2022/04/16 05:43:13;;;;;;;5.68;2.00;;;;;;;6.77;73.84;102079.31;5011184;28;20099;-68
2022/04/16 05:46:16;;;;;;;3.05;1.48;;;;;;;6.96;73.38;102086.00;5010010;28;20092;-68
2022/04/16 05:49:20;;;;;;;;;;;;;;;6.90;73.86;102090.41;5010880;28;20064;-68
2022/04/16 05:52:24;;;;;;;2.80;1.77;;;;;;;6.83;74.22;102092.22;5010284;28;19975;-68
2022/04/16 05:55:28;;;;;;;3.65;2.00;;;;;;;6.86;74.92;102096.50;5010682;28;20045;-68
2022/04/16 05:58:31;;;;;;;6.20;2.05;;;;;;;6.94;74.65;102094.69;5012370;28;20119;-67
2022/04/16 06:01:35;;;;;;;4.45;1.83;;;;;;;6.91;74.84;102089.53;5011989;28;20104;-68
2022/04/16 06:04:42;;;;;;;3.25;2.20;;;;;;;6.79;75.01;102094.88;5010774;28;20045;-68
2022/04/16 06:07:51;;;;;;;2.50;1.60;;;;;;;6.80;75.32;102088.81;4995196;28;20046;-68
2022/04/16 06:11:04;;;;;;;3.70;2.00;;;;;;;7.18;73.88;102083.13;4990905;28;20609;-68
2022/04/16 06:14:10;;;;;;;3.33;2.03;;;;;;;6.90;75.21;102099.06;4991336;28;20571;-68
2022/04/16 06:17:13;;;;;;;4.22;2.20;;;;;;;6.92;74.52;102089.53;5009224;28;20044;-68
2022/04/16 06:20:17;;;;;;;3.53;1.83;;;;;;;7.12;74.28;102098.81;5009682;28;20095;-68
2022/04/16 06:23:21;;;;;;;3.13;1.60;;;;;;;7.22;73.97;102106.47;5009459;28;20044;-67
2022/04/16 06:26:26;;;;;;;3.72;2.17;;;;;;;7.33;73.82;102108.91;5008940;28;20496;-68
2022/04/16 06:29:29;;;;;;;3.90;1.90;;;;;;;7.29;74.34;102111.59;5008557;28;20394;-67
2022/04/16 06:32:34;;;;;;;2.65;1.70;;;;;;;7.43;73.89;102114.88;5010732;28;20044;-68
2022/04/16 06:35:39;;;;;;;3.75;2.15;;;;;;;7.43;73.66;102117.47;5010624;28;20067;-68
2022/04/16 06:38:43;;;;;;;5.25;2.28;;;;;;;7.66;72.62;102119.78;5008931;28;20048;-68
2022/04/16 06:41:46;;;;;;;;;;;;;;;7.77;72.55;102119.59;4661683;28;10001526;-68
2022/04/16 06:44:50;;;;;;;5.95;3.08;;;;;;;7.87;72.38;102115.97;5008592;28;19967;-68
2022/04/16 06:47:53;;;;;;;6.10;2.58;;;;;;;7.87;72.99;102118.56;5008661;28;20520;-67
2022/04/16 06:50:57;;;;;;;5.70;2.33;;;;;;;7.70;74.01;102116.22;5009718;28;20133;-68
2022/04/16 06:54:00;;;;;;;4.60;2.33;;;;;;;7.78;74.22;102121.31;5009298;28;20160;-68
2022/04/16 06:57:04;;;;;;;7.40;2.25;;;;;;;7.84;74.12;102119.47;5008346;28;20886;-68
2022/04/16 07:00:08;;;;;;;4.43;1.95;;;;;;;8.14;73.10;102112.91;4988836;28;20053;-68
2022/04/16 07:03:14;;;;;;;10.10;2.90;;;;;;;8.32;72.58;102118.69;4989341;28;20108;-68
2022/04/16 07:06:17;;;;;;;12.82;2.42;;;;;;;8.61;71.42;102115.59;4989881;28;20037;-67
2022/04/16 07:09:20;;;;;;;3.75;2.30;;;;;;;8.71;71.95;102114.56;4998886;28;20116;-69
2022/04/16 07:12:25;;;;;;;3.95;2.85;;;;;;;8.72;71.44;102118.00;5008294;28;20102;-67
2022/04/16 07:15:28;;;;;;;7.25;3.63;;;;;;;8.66;72.05;102123.34;5004357;28;20053;-68
2022/04/16 07:18:33;;;;;;;5.45;3.72;;;;;;;8.99;71.49;102111.38;5007664;28;20048;-68
2022/04/16 07:21:37;;;;;;;6.63;3.97;;;;;;;9.13;71.17;102108.50;5007316;28;20121;-68
2022/04/16 07:24:42;;;;;;;8.98;4.07;;;;;;;9.28;70.77;102109.03;5009068;28;20049;-68
2022/04/16 07:27:46;;;;;;;6.65;4.07;;;;;;;9.45;71.17;102106.06;5011700;28;20048;-67
2022/04/16 07:30:51;;;;;;;7.10;4.63;;;;;;;9.64;68.77;102105.63;5012167;28;20049;-68
2022/04/16 07:33:56;;;;;;;9.15;4.32;;;;;;;9.79;67.16;102100.03;5013214;28;20146;-68
2022/04/16 07:37:02;;;;;;;6.65;4.55;;;;;;;10.01;66.48;102096.00;5012877;28;20053;-67
2022/04/16 07:40:06;;;;;;;9.80;4.78;;;;;;;10.18;64.76;102098.22;5013165;28;20044;-68
2022/04/16 07:43:09;;;;;;;7.28;4.20;;;;;;;10.25;64.20;102096.28;5000642;28;20052;-67
2022/04/16 07:46:15;;;;;;;6.78;5.13;;;;;;;10.36;63.45;102103.88;5013285;28;20072;-68
2022/04/16 07:49:20;;;;;;;6.18;4.65;;;;;;;10.42;63.11;102101.09;5013838;28;20044;-68
2022/04/16 07:52:25;;;;;;;5.47;3.85;;;;;;;10.45;62.39;102101.03;5012537;28;20071;-68
2022/04/16 07:55:31;;;;;;;5.35;3.90;;;;;;;10.56;61.17;102104.22;5012141;28;20077;-68
2022/04/16 07:58:34;;;;;;;4.05;3.10;;;;;;;10.71;61.13;102108.16;5010919;28;20045;-68
2022/04/16 08:01:38;;;;;;;5.55;3.60;;;;;;;10.90;60.01;102104.13;5012971;28;20504;-68
2022/04/16 08:04:42;;;;;;;7.03;3.38;;;;;;;11.22;59.41;102099.72;5012892;28;20129;-67
2022/04/16 08:07:49;;;;;;;4.20;3.00;;;;;;;11.36;57.24;102109.81;5000228;28;20048;-68
2022/04/16 08:10:54;;;;;;;3.85;2.40;;;;;;;11.27;54.91;102117.94;5012485;28;20056;-67
2022/04/16 08:13:58;;;;;;;6.10;2.70;;;;;;;11.13;54.37;102123.56;5012494;28;20246;-68
2022/04/16 08:17:01;;;;;;;12.20;2.85;;;;;;;11.02;55.14;102123.03;5012441;28;20057;-68
2022/04/16 08:20:06;;;;;;;4.03;2.33;;;;;;;10.75;54.95;102135.94;5012637;28;20129;-68
2022/04/16 08:23:11;;;;;;;8.38;2.40;;;;;;;10.86;56.25;102127.81;5012290;28;20152;-67
2022/04/16 08:26:16;;;;;;;8.45;2.65;;;;;;;10.85;55.31;102126.97;5011581;28;20037;-67
2022/04/16 08:29:19;;;;;;;5.07;2.70;;;;;;;10.87;54.34;102155.69;5012424;28;20080;-68
2022/04/16 08:32:23;;;;;;;5.90;2.40;;;;;;;11.12;54.84;102150.63;5011957;28;20040;-68
2022/04/16 08:35:27;;;;;;;4.30;2.10;;;;;;;11.16;54.40;102157.50;5012775;28;20045;-68
2022/04/16 08:38:31;;;;;;;5.25;2.40;;;;;;;11.15;53.59;102155.78;5012304;28;20400;-68
2022/04/16 08:41:35;;;;;;;;;;;;;;;11.23;53.30;102152.94;5012282;28;20425;-68
2022/04/16 08:44:39;;;;;;;3.15;1.70;;;;;;;11.15;52.45;102150.56;5004180;28;19933;-68
2022/04/16 08:47:44;;;;;;;2.80;1.60;;;;;;;11.03;52.21;102161.38;4988274;28;20048;-68
2022/04/16 08:50:48;;;;;;;2.90;1.92;;;;;;;11.06;52.46;102150.81;4989694;28;20090;-68
2022/04/16 08:53:52;;;;;;;3.58;2.15;;;;;;;11.24;52.42;102146.81;4987226;28;20121;-68
2022/04/16 08:56:55;;;;;;;3.25;1.80;;;;;;;11.31;52.77;102146.59;4987641;28;20049;-68
2022/04/16 08:59:58;;;;;;;2.90;1.73;;;;;;;11.38;52.49;102142.88;4968977;28;20046;-68
2022/04/16 09:03:03;;;;;;;4.18;2.75;;;;;;;11.42;53.16;102156.72;4980965;28;20073;-68
2022/04/16 09:06:23;;;;;;;5.55;3.03;;;;;;;11.43;53.57;102160.22;4989820;28;20049;-68
2022/04/16 09:09:28;;;;;;;5.63;3.42;;;;;;;11.35;53.32;102148.19;4989610;28;20053;-68
2022/04/16 09:12:39;;;;;;;6.05;3.47;;;;;;;11.53;53.13;102152.03;4991261;28;20073;-68
2022/04/16 09:15:43;;;;;;;4.45;2.78;;;;;;;11.71;53.61;102152.38;4989873;28;20456;-68
2022/04/16 09:18:47;;;;;;;4.70;2.85;;;;;;;11.62;53.14;102151.78;4984926;28;20089;-68
2022/04/16 09:21:51;;;;;;;4.40;3.15;;;;;;;11.61;54.18;102154.41;4972187;28;20124;-68
2022/04/16 09:24:54;;;;;;;5.82;3.75;;;;;;;11.57;53.75;102163.28;4972280;28;20046;-68
2022/04/16 09:28:05;;;;;;;5.00;3.72;;;;;;;11.49;53.82;102170.53;4971740;28;20599;-68
2022/04/16 09:31:09;;;;;;;5.85;3.67;;;;;;;11.38;54.17;102169.06;4991295;28;20043;-68
2022/04/16 09:34:18;;;;;;;6.13;4.30;;;;;;;11.36;53.37;102159.56;4990983;28;20092;-68
2022/04/16 09:37:24;;;;;;;5.55;3.20;;;;;;;11.25;51.65;102157.25;4991044;28;20066;-68
2022/04/16 09:40:30;;;;;;;17.38;4.72;;;;;;;11.17;51.82;102159.25;4991242;28;20587;-68
2022/04/16 09:43:38;;;;;;;6.80;3.22;;;;;;;11.07;51.89;102157.75;4989967;28;20140;-69
2022/04/16 09:46:44;;;;;;;6.07;3.30;;;;;;;11.07;51.34;102163.88;4991173;28;20106;-68
2022/04/16 09:49:49;;;;;;;6.00;3.20;;;;;;;11.13;52.80;102163.69;4991694;28;20048;-68
2022/04/16 09:52:56;;;;;;;8.13;3.40;;;;;;;11.15;51.98;102161.03;4991193;28;20053;-68
2022/04/16 09:56:00;;;;;;;5.38;2.78;;;;;;;11.11;52.30;102168.13;4990607;28;20521;-68
2022/04/16 09:59:06;;;;;;;4.97;3.22;;;;;;;11.25;52.00;102162.47;4990008;28;20056;-68
2022/04/16 10:02:15;;;;;;;6.50;3.30;;;;;;;11.42;52.14;102161.97;4990722;28;20121;-68
2022/04/16 10:05:20;;;;;;;4.32;2.70;;;;;;;11.67;51.04;102154.22;4990571;28;20469;-68
2022/04/16 10:08:27;;;;;;;5.50;3.03;;;;;;;11.76;49.05;102156.56;4990454;28;20117;-69
2022/04/16 10:15:05;;;;;;;6.88;3.63;;;;;;;11.93;47.14;102165.69;4991208;28;20660;-68
2022/04/16 10:18:11;;;;;;;5.50;2.60;;;;;;;12.02;44.17;102155.78;4990790;28;20100;-68
2022/04/16 10:21:16;;;;;;;8.60;2.78;;;;;;;12.06;43.81;102162.66;4990380;28;20743;-68
2022/04/16 10:24:28;;;;;;;5.45;2.55;;;;;;;12.22;44.92;102152.53;4990580;28;20112;-68
2022/04/16 10:27:42;;;;;;;4.55;2.70;;;;;;;12.27;44.79;102158.44;4990266;28;20042;-68
2022/04/16 10:30:53;;;;;;;5.25;3.22;;;;;;;12.37;44.66;102155.53;4990760;28;20049;-68
2022/04/16 10:33:58;;;;;;;8.77;4.10;;;;;;;12.39;43.46;102154.56;4989890;28;20105;-68
2022/04/16 10:37:07;;;;;;;8.80;3.42;;;;;;;12.76;50.32;102158.53;4978740;28;20041;-70
2022/04/16 10:40:18;;;;;;;6.65;3.25;;;;;;;12.97;48.60;102152.53;4989715;28;20495;-69
2022/04/16 10:43:32;;;;;;;4.72;2.92;;;;;;;12.92;43.04;102153.59;4990687;28;20049;-70
2022/04/16 10:46:46;;;;;;;5.03;2.28;;;;;;;12.89;42.86;102145.81;4989997;28;20049;-72
2022/04/16 10:49:57;;;;;;;4.50;2.70;;;;;;;12.82;41.84;102141.72;4989633;28;20160;-71
2022/04/16 10:53:03;;;;;;;4.47;2.38;;;;;;;13.00;43.57;102127.94;4989446;28;20105;-69
2022/04/16 10:56:17;;;;;;;4.55;2.65;;;;;;;13.29;46.65;102139.16;4988324;28;20045;-69
2022/04/16 10:59:38;;;;;;;4.18;2.10;;;;;;;13.31;43.39;102139.97;4989371;28;20045;-69
2022/04/16 11:02:42;;;;;;;4.65;2.72;;;;;;;13.21;41.94;102132.38;4991459;28;20061;-71
2022/04/16 11:05:47;;;;;;;6.35;2.78;;;;;;;13.16;41.96;102136.09;4989408;28;20037;-71
2022/04/16 11:08:51;;;;;;;7.95;2.47;;;;;;;13.01;40.71;102143.59;4988517;28;20072;-71
2022/04/16 11:11:55;;;;;;;7.90;2.08;;;;;;;13.20;42.78;102141.16;4989140;28;20054;-71
2022/04/16 11:15:01;;;;;;;4.50;2.42;;;;;;;13.21;40.22;102135.00;4989139;28;20568;-71
2022/04/16 11:18:06;;;;;;;6.03;2.78;;;;;;;13.16;40.88;102136.94;4977895;28;20053;-71
2022/04/16 11:21:12;;;;;;;;;;;;;;;13.31;39.92;102129.44;4990741;28;20454;-71
2022/04/16 11:24:16;;;;;;;4.93;2.38;;;;;;;13.36;42.17;102127.47;4989171;28;19976;-71
2022/04/16 11:34:18;;;;;;;5.22;2.60;;;;;;;13.68;39.74;102116.56;4963570;28;20042;-71
2022/04/16 11:37:22;;;;;;;6.07;2.67;;;;;;;13.71;39.81;102105.91;4977540;28;20173;-72
2022/04/16 11:40:25;;;;;;;4.15;2.33;;;;;;;13.71;37.88;102112.97;4988749;28;20193;-71
2022/04/16 11:43:29;;;;;;;3.35;2.00;;;;;;;13.67;35.79;102116.63;4988516;28;20061;-71
2022/04/16 11:46:41;;;;;;;9.95;2.47;;;;;;;13.81;35.48;102109.03;4988409;28;20116;-71
2022/04/16 11:49:49;;;;;;;5.13;1.65;;;;;;;13.85;35.05;102105.38;4988926;28;20057;-71
2022/04/16 11:52:52;;;;;;;3.33;1.63;;;;;;;13.79;34.25;102102.16;4975867;28;20128;-71
2022/04/16 11:55:56;;;;;;;3.83;1.55;;;;;;;13.99;32.61;102107.44;4988728;28;20049;-71
2022/04/16 11:59:00;;;;;;;5.80;1.08;;;;;;;14.19;31.35;102096.94;4999814;28;20397;-71
2022/04/16 12:02:08;;;;;;;4.03;1.55;;;;;;;14.18;31.02;102104.91;4989613;28;20398;-71
2022/04/16 12:05:14;;;;;;;2.92;1.10;;;;;;;14.22;31.88;102092.47;4989631;28;20045;-71
2022/04/16 12:08:22;;;;;;;2.85;1.13;;;;;;;14.37;30.36;102095.28;4991093;28;20052;-70
2022/04/16 12:11:27;;;;;;;7.38;1.25;;;;;;;14.35;28.42;102093.66;5007475;28;20140;-71
2022/04/16 12:14:31;;;;;;;2.30;0.80;;;;;;;14.46;28.34;102099.31;5007713;28;20044;-71
2022/04/16 12:17:39;;;;;;;3.03;0.80;;;;;;;14.46;26.97;102091.41;5007526;28;20111;-71
2022/04/16 12:20:46;;;;;;;3.85;1.17;;;;;;;14.50;27.54;102089.50;4999053;28;20135;-71
2022/04/16 12:23:50;;;;;;;5.30;1.02;;;;;;;14.60;28.02;102099.59;4969147;28;20105;-71
2022/04/16 12:26:56;;;;;;;2.80;0.82;;;;;;;14.82;28.00;102099.47;4995753;28;20064;-71
2022/04/16 12:30:04;;;;;;;4.60;1.33;;;;;;;15.00;27.77;102091.69;5006743;28;20401;-71
2022/04/16 12:33:11;;;;;;;5.20;1.13;;;;;;;15.33;27.83;102091.88;5009955;28;20076;-71
2022/04/16 12:36:14;;;;;;;1.58;0.50;;;;;;;15.64;25.85;102082.53;4991224;28;20540;-70
2022/04/16 12:39:18;;;;;;;2.45;0.40;;;;;;;15.83;25.61;102086.00;4989672;28;20044;-71
2022/04/16 12:42:21;;;;;;;4.95;0.85;;;;;;;16.03;24.40;102083.19;4989809;28;20049;-71
2022/04/16 12:45:26;;;;;;;3.70;0.90;;;;;;;16.10;23.76;102080.25;4971269;28;20222;-71
2022/04/16 12:48:30;;;;;;;7.80;5.47;;;;;;;16.41;24.67;102083.03;4973153;28;20042;-70
2022/04/16 12:51:36;;;;;;;1.40;0.50;;;;;;;16.57;24.39;102092.78;4991895;28;20046;-71
2022/04/16 12:54:41;;;;;;;4.32;0.55;;;;;;;16.81;24.25;102086.22;4992407;28;20046;-71
2022/04/16 12:57:45;;;;;;;2.42;0.47;;;;;;;17.11;22.30;102085.50;4992316;28;20393;-71
2022/04/16 13:00:52;;;;;;;1.88;0.47;;;;;;;17.27;22.79;102081.09;4993530;28;20053;-72
2022/04/16 13:03:55;;;;;;;2.95;0.93;;;;;;;17.49;20.74;102074.59;4992712;28;20092;-72
2022/04/16 13:06:59;;;;;;;3.15;1.30;;;;;;;17.54;21.12;102077.81;4993169;28;20493;-72
2022/04/16 13:10:05;;;;;;;3.72;1.92;;;;;;;17.94;20.57;102072.91;4980493;28;20117;-71
2022/04/16 13:13:09;;;;;;;1.73;0.57;;;;;;;18.12;20.56;102080.63;4993443;28;20069;-71
2022/04/16 13:16:13;;;;;;;1.98;0.60;;;;;;;18.26;19.60;102066.53;4993394;28;20048;-71
2022/04/16 13:19:17;;;;;;;2.95;0.93;;;;;;;17.83;21.52;102074.38;4992409;28;20052;-69
2022/04/16 13:22:20;;;;;;;5.40;1.15;;;;;;;18.68;21.35;102064.88;4991895;28;20479;-69
2022/04/16 13:25:25;;;;;;;1.80;0.50;;;;;;;19.17;20.81;102061.78;4990823;28;20092;-70
2022/04/16 13:28:28;;;;;;;2.30;0.57;;;;;;;19.25;19.96;102061.31;4991092;28;20053;-70
2022/04/16 13:31:34;;;;;;;2.03;0.52;;;;;;;20.09;20.30;102057.56;4990627;28;20053;-70
2022/04/16 13:34:39;;;;;;;1.92;0.47;;;;;;;20.51;18.01;102060.84;4992018;28;20045;-70
2022/04/16 13:37:43;;;;;;;1.15;0.50;;;;;;;22.16;16.62;102055.91;4992375;28;20045;-70
2022/04/16 13:44:11;;;;;;;8.55;1.08;;;;;;;24.83;12.90;102046.25;4971720;28;20050;-70
2022/04/16 13:47:14;;;;;;;3.13;0.85;;;;;;;27.01;12.27;102050.06;4985048;28;20053;-70
2022/04/16 13:50:18;;;;;;;22.60;1.77;;;;;;;29.87;10.12;102051.63;4991230;28;20045;-70
2022/04/16 13:53:23;;;;;;;14.52;1.48;;;;;;;31.77;9.21;102039.75;4992367;28;20062;-70
2022/04/16 13:56:27;;;;;;;8.77;1.25;;;;;;;33.11;7.83;102035.97;4991023;28;20054;-70
2022/04/16 13:59:30;;;;;;;5.90;1.20;;;;;;;31.09;8.47;102033.34;4991516;28;20448;-70
2022/04/16 14:02:34;;;;;;;4.35;1.40;;;;;;;32.44;8.33;102033.50;4989417;28;20041;-70
2022/04/16 14:05:44;;;;;;;2.08;0.73;;;;;;;31.90;8.63;102023.75;4990454;28;20042;-71
2022/04/16 14:08:48;;;;;;;2.08;0.70;;;;;;;31.16;8.68;102026.19;4978476;28;20052;-71
2022/04/16 14:11:51;;;;;;;10.75;3.33;;;;;;;32.04;7.84;102016.69;4990958;28;20056;-70
2022/04/16 14:14:55;;;;;;;2.20;0.75;;;;;;;32.21;6.86;102008.38;4990058;28;20499;-70
2022/04/16 14:17:58;;;;;;;5.45;1.17;;;;;;;31.63;8.02;102010.81;4989898;28;20318;-69
2022/04/16 14:21:07;;;;;;;1.50;0.77;;;;;;;33.76;7.11;102000.69;4990038;28;20049;-70
2022/04/16 14:24:10;;;;;;;3.03;1.00;;;;;;;33.40;6.63;102007.06;4990109;28;20551;-69
2022/04/16 14:27:16;;;;;;;3.92;3.13;;;;;;;32.18;7.47;102013.13;4989575;28;20096;-69
2022/04/16 14:30:21;;;;;;;18.63;1.80;;;;;;;32.19;7.59;102012.09;4989416;28;20045;-70
2022/04/16 14:33:24;;;;;;;2.53;1.17;;;;;;;29.71;8.57;102013.91;4973232;28;20045;-68
2022/04/16 14:36:29;;;;;;;1.85;0.73;;;;;;;30.88;7.87;102003.44;4966933;28;20054;-70
2022/04/16 14:39:33;;;;;;;2.10;0.80;;;;;;;31.15;8.11;102008.31;4970852;28;20141;-70
2022/04/16 14:42:36;;;;;;;1.98;0.90;;;;;;;30.73;7.86;102001.47;4970315;28;20105;-70
2022/04/16 14:45:44;;;;;;;2.22;0.60;;;;;;;31.61;7.88;102002.06;4970362;28;20054;-70
2022/04/16 14:48:53;;;;;;;2.05;0.80;;;;;;;32.75;7.13;101997.22;4970094;28;20037;-70
2022/04/16 14:51:58;;;;;;;4.32;0.88;;;;;;;32.44;7.89;102013.72;4980762;28;20104;-70
2022/04/16 14:55:02;;;;;;;3.95;0.80;;;;;;;31.48;9.43;102003.50;4988303;28;20044;-71
2022/04/16 14:58:09;;;;;;;4.95;1.15;;;;;;;32.19;9.95;102006.69;4988221;28;20045;-71
2022/04/16 15:01:13;;;;;;;2.88;1.00;;;;;;;29.62;11.34;102001.47;4987544;28;20041;-71